LGAVLGHI

Guest
Details From LGAV - Athens Intl Airport Elefterios Venizel
To LGHI - Chios
Flight Number -
Tags generated
Created
Modified
Stats Distance 107 nm / 198 km
Max Altitude 9,300 ft / 2,835 m
Waypoints 3
Social Downloads 2
Likes 0
Share VATSIM

Download

Looking for another format? Having issues loading an existing format? Contact us
Advertisement - Login to hide

Notes

Basic altitude profile: - Ascent Rate: 2500ft/min - Ascent Speed: 250kts - Cruise Altitude: 35000ft - Cruise Speed: 420kts - Descent Rate: 1500ft/min - Descent Speed: 250kts Options: - Use NATs: no - Use PACOTS: no - Use low airways: no - Use high airways: yes

Route

LGAV KRO LGHI

ID Type Via Altitude Latitude Longitude Leg Dist Tot Dist Heading (true) Name
O LGAV APT - 0 ft / 0 m 37.93636˚ 23.94447˚ - 0 nm - Athens Intl Airport Elefterios Venizel
KRO VOR - 9,300 ft / 2,835 m 37.99414˚ 24.49492˚ 26 nm 26 nm 82° / 83° KARISTOS VOR-DME
O LGHI APT - 0 ft / 0 m 38.34318˚ 26.14058˚ 80 nm 106 nm 74° / 75° Chios

Altitude Profile

Advertisement - Login to hide

LGAV

Details ICAO LGAV (ATH)
Name Athens Intl Airport Elefterios Venizel
Region Greece
Timezone Europe/Athens (UTC+2.0)
Stats Elevation 308 ft / 94 m (AMSL)
Location 37.936357° 23.944470°
Runways 2
Magnetic Variation 4.484° E

METAR

LGAV 141250Z 24010KT 210V270 9999 FEW040 20/08 Q1015 NOSIG

Decode

TAF

TAF TAF LGAV 141100Z 1412/1512 26012KT 9999 FEW025

Decode

Departure Runways

ID Width Length Bearing (true) Bearing (mag) Surface Threshold Offset Overrun Length
03L 148 ft / 45 m 12,474 ft / 3,802 m 36.51° 32.03° Asphalt 984 ft / 300 m 393 ft / 120 m
03R 148 ft / 45 m 13,131 ft / 4,002 m 36.52° 32.04° Asphalt 984 ft / 300 m 393 ft / 120 m
21L 148 ft / 45 m 13,131 ft / 4,002 m 216.54° 212.06° Asphalt 984 ft / 300 m 393 ft / 120 m
21R 148 ft / 45 m 12,474 ft / 3,802 m 216.53° 212.05° Asphalt 984 ft / 300 m 393 ft / 120 m

LGHI

Details ICAO LGHI (JKH)
Name Chios
Region Greece
Timezone Europe/Athens (UTC+2.0)
Stats Elevation 18 ft / 5 m (AMSL)
Location 38.343175° 26.140575°
Runways 1
Magnetic Variation 4.788° E

METAR

LGHI 141250Z 24008KT 9999 FEW025 19/07 Q1014

Decode

TAF

Not found

Destination Runways

ID Width Length Bearing (true) Bearing (mag) Surface Threshold Offset Overrun Length
01 98 ft / 30 m 4,966 ft / 1,514 m 9.51° 4.72° Asphalt 393 ft / 120 m 0 ft / 0 m
19 98 ft / 30 m 4,966 ft / 1,514 m 189.51° 184.72° Asphalt 262 ft / 80 m 0 ft / 0 m

Popular Alternatives